createdAt,value
2018-11-27T00:02:05.198Z,9.38
2018-11-27T00:04:32.520Z,9.42
2018-11-27T00:06:59.944Z,9.87
2018-11-27T00:09:27.440Z,10.14
2018-11-27T00:11:54.975Z,9.80
2018-11-27T00:14:22.367Z,9.74
2018-11-27T00:16:49.814Z,9.42
2018-11-27T00:19:17.221Z,9.81
2018-11-27T00:21:44.651Z,9.33
2018-11-27T00:24:12.096Z,9.23
2018-11-27T00:26:39.445Z,9.30
2018-11-27T00:29:07.505Z,9.28
2018-11-27T00:31:34.976Z,9.36
2018-11-27T00:34:02.402Z,8.99
2018-11-27T00:36:30.526Z,9.20
2018-11-27T00:38:57.885Z,9.64
2018-11-27T00:41:25.185Z,9.56
2018-11-27T00:43:52.523Z,9.54
2018-11-27T00:46:19.895Z,9.67
2018-11-27T00:48:47.297Z,9.72
2018-11-27T00:51:14.680Z,9.89
2018-11-27T00:53:42.043Z,9.95
2018-11-27T00:56:09.517Z,9.91
2018-11-27T00:58:36.891Z,9.99
2018-11-27T01:01:04.481Z,9.79
2018-11-27T01:03:31.917Z,9.65
2018-11-27T01:05:59.219Z,9.62
2018-11-27T01:08:26.599Z,9.60
2018-11-27T01:10:53.927Z,9.83
2018-11-27T01:13:21.252Z,9.61
2018-11-27T01:15:48.717Z,9.35
2018-11-27T01:18:16.124Z,9.10
2018-11-27T01:20:44.197Z,9.77
2018-11-27T01:23:11.550Z,9.38
2018-11-27T01:25:38.991Z,9.07
2018-11-27T01:28:07.013Z,9.31
2018-11-27T01:30:34.450Z,9.29
2018-11-27T01:33:01.815Z,9.44
2018-11-27T01:35:29.356Z,9.49
2018-11-27T01:37:56.778Z,9.46
2018-11-27T01:40:26.023Z,9.11
2018-11-27T01:42:54.234Z,9.32
2018-11-27T01:45:22.372Z,9.31
2018-11-27T01:47:50.167Z,9.29
2018-11-27T01:50:18.549Z,9.57
2018-11-27T01:52:46.024Z,9.21
2018-11-27T01:55:16.532Z,9.21
2018-11-27T01:57:43.849Z,9.38
2018-11-27T02:00:21.950Z,9.32
2018-11-27T02:02:49.584Z,9.37
2018-11-27T02:05:17.309Z,8.91
2018-11-27T02:07:45.663Z,8.65
2018-11-27T02:10:13.013Z,8.63
2018-11-27T02:12:41.662Z,8.46
2018-11-27T02:15:28.274Z,8.11
2018-11-27T02:17:55.959Z,8.19
2018-11-27T02:20:23.383Z,8.73
2018-11-27T02:22:50.805Z,8.93
2018-11-27T02:25:21.241Z,8.42
2018-11-27T02:27:48.879Z,8.47
2018-11-27T02:30:18.300Z,9.04
2018-11-27T02:32:45.666Z,8.71
2018-11-27T02:35:17.637Z,8.16
2018-11-27T02:37:46.792Z,8.02
2018-11-27T02:40:15.942Z,8.62
2018-11-27T02:42:43.441Z,8.79
2018-11-27T02:45:13.841Z,8.41
2018-11-27T02:47:41.719Z,8.61
2018-11-27T02:50:12.910Z,8.64
2018-11-27T02:52:40.350Z,8.84
2018-11-27T02:55:24.365Z,8.39
2018-11-27T02:57:51.865Z,8.40
2018-11-27T03:00:20.765Z,8.54
2018-11-27T03:02:48.803Z,8.06
2018-11-27T03:05:19.901Z,8.25
2018-11-27T03:07:47.248Z,7.97
2018-11-27T03:10:15.162Z,8.21
2018-11-27T03:12:42.680Z,7.83
2018-11-27T03:15:12.792Z,7.81
2018-11-27T03:17:40.177Z,7.62
2018-11-27T03:20:09.089Z,7.61
2018-11-27T03:22:36.499Z,7.89
2018-11-27T03:25:04.617Z,7.88
2018-11-27T03:27:31.979Z,7.39
2018-11-27T03:29:59.404Z,7.73
2018-11-27T03:32:26.771Z,7.86
2018-11-27T03:34:54.134Z,7.68
2018-11-27T03:37:21.495Z,7.38
2018-11-27T03:39:49.205Z,7.81
2018-11-27T03:42:16.544Z,8.11
2018-11-27T03:44:44.020Z,8.57
2018-11-27T03:47:11.432Z,8.13
2018-11-27T03:49:38.860Z,7.82
2018-11-27T03:52:06.186Z,8.40
2018-11-27T03:54:33.559Z,8.28
2018-11-27T03:57:01.034Z,8.40
2018-11-27T03:59:28.372Z,8.59
2018-11-27T04:01:58.445Z,7.89
2018-11-27T04:04:25.899Z,7.96
2018-11-27T04:06:53.240Z,8.29
2018-11-27T04:09:20.567Z,7.92
2018-11-27T04:11:48.024Z,8.20
2018-11-27T04:14:15.326Z,8.13
2018-11-27T04:16:42.685Z,8.07
2018-11-27T04:19:10.013Z,7.49
2018-11-27T04:21:37.355Z,7.13
2018-11-27T04:24:05.711Z,7.00
2018-11-27T04:26:33.122Z,7.14
2018-11-27T04:29:00.519Z,7.05
2018-11-27T04:31:27.822Z,6.95
2018-11-27T04:33:55.249Z,6.78
2018-11-27T04:36:22.622Z,7.39
2018-11-27T04:38:50.023Z,7.64
2018-11-27T04:41:17.415Z,7.04
2018-11-27T04:43:45.023Z,7.34
2018-11-27T04:46:12.349Z,6.93
2018-11-27T04:48:39.771Z,7.15
2018-11-27T04:51:07.112Z,7.03
2018-11-27T04:53:34.545Z,7.11
2018-11-27T04:56:01.890Z,6.72
2018-11-27T04:58:29.413Z,6.82
2018-11-27T05:00:56.940Z,6.60
2018-11-27T05:03:24.299Z,6.75
2018-11-27T05:05:51.674Z,6.70
2018-11-27T05:08:19.035Z,6.78
2018-11-27T05:10:46.464Z,6.55
2018-11-27T05:13:13.916Z,6.33
2018-11-27T05:15:41.340Z,6.45
2018-11-27T05:18:08.788Z,6.73
2018-11-27T05:20:36.164Z,7.57
2018-11-27T05:23:03.984Z,7.61
2018-11-27T05:25:31.474Z,6.94
2018-11-27T05:27:59.491Z,7.42
2018-11-27T05:30:28.463Z,7.04
2018-11-27T05:32:55.421Z,7.11
2018-11-27T05:35:27.913Z,6.98
2018-11-27T05:37:56.202Z,6.48
2018-11-27T05:40:24.470Z,6.90
2018-11-27T05:42:54.153Z,7.25
2018-11-27T05:45:22.427Z,7.75
2018-11-27T05:47:49.764Z,7.05
2018-11-27T05:50:17.992Z,6.63
2018-11-27T05:52:45.425Z,7.02
2018-11-27T05:55:13.332Z,6.80
2018-11-27T05:57:41.567Z,6.84
2018-11-27T06:00:13.954Z,6.67
2018-11-27T06:02:41.392Z,6.46
2018-11-27T06:05:13.417Z,6.80
2018-11-27T06:07:40.724Z,7.25
2018-11-27T06:10:09.538Z,7.08
2018-11-27T06:12:36.865Z,6.91
2018-11-27T06:15:05.318Z,6.90
2018-11-27T06:17:32.693Z,6.80
2018-11-27T06:20:00.151Z,7.01
2018-11-27T06:22:27.655Z,6.89
2018-11-27T06:24:55.065Z,6.75
2018-11-27T06:27:22.411Z,7.11
2018-11-27T06:29:49.833Z,6.72
2018-11-27T06:32:21.363Z,6.62
2018-11-27T06:34:44.655Z,7.08
2018-11-27T06:37:12.002Z,6.86
2018-11-27T06:39:39.449Z,6.74
2018-11-27T06:42:06.924Z,7.35
2018-11-27T06:44:34.251Z,6.84
2018-11-27T06:47:01.589Z,7.26
2018-11-27T06:49:28.933Z,7.14
2018-11-27T06:51:56.310Z,6.93
2018-11-27T06:54:23.730Z,6.75
2018-11-27T06:56:51.207Z,7.31
2018-11-27T06:59:18.561Z,6.66
2018-11-27T07:01:45.893Z,6.55
2018-11-27T07:04:13.310Z,6.85
2018-11-27T07:06:40.828Z,6.64
2018-11-27T07:09:09.270Z,7.35
2018-11-27T07:11:36.878Z,6.73
2018-11-27T07:14:04.680Z,6.58
2018-11-27T07:16:32.227Z,7.17
2018-11-27T07:18:59.612Z,7.27
2018-11-27T07:21:27.115Z,6.71
2018-11-27T07:23:54.426Z,6.28
2018-11-27T07:26:21.790Z,6.31
2018-11-27T07:28:49.088Z,7.32
2018-11-27T07:31:16.556Z,7.20
2018-11-27T07:33:43.954Z,7.38
2018-11-27T07:36:11.318Z,7.91
2018-11-27T07:38:38.710Z,7.95
2018-11-27T07:41:06.074Z,7.79
2018-11-27T07:43:33.540Z,7.11
2018-11-27T07:46:00.998Z,7.25
2018-11-27T07:48:28.366Z,7.17
2018-11-27T07:50:55.736Z,7.26
2018-11-27T07:53:23.191Z,7.29
2018-11-27T07:55:50.556Z,8.10
2018-11-27T07:58:17.874Z,8.09
2018-11-27T08:00:45.252Z,7.79
2018-11-27T08:03:12.616Z,8.24
2018-11-27T08:05:40.896Z,8.23
2018-11-27T08:08:12.641Z,8.27
2018-11-27T08:10:40.491Z,8.17
2018-11-27T08:13:08.519Z,8.00
2018-11-27T08:15:35.975Z,8.05
2018-11-27T08:18:03.343Z,8.30
2018-11-27T08:20:31.858Z,7.93
2018-11-27T08:22:59.353Z,8.28
2018-11-27T08:25:26.777Z,8.21
2018-11-27T08:27:54.155Z,8.03
2018-11-27T08:30:22.180Z,8.32
2018-11-27T08:32:49.984Z,7.97
2018-11-27T08:35:23.601Z,8.29
2018-11-27T08:37:52.044Z,8.04
2018-11-27T08:40:20.604Z,8.14
2018-11-27T08:42:47.983Z,8.22
2018-11-27T08:45:18.202Z,8.25
2018-11-27T08:47:46.497Z,8.14
2018-11-27T08:50:16.941Z,8.16
2018-11-27T08:52:52.927Z,8.07
2018-11-27T08:55:51.452Z,7.79
2018-11-27T08:58:20.187Z,8.00
2018-11-27T09:00:47.744Z,7.75
2018-11-27T09:03:15.194Z,7.88
2018-11-27T09:05:42.707Z,7.45
2018-11-27T09:08:10.060Z,7.85
2018-11-27T09:10:37.365Z,8.05
2018-11-27T09:13:05.972Z,7.80
2018-11-27T09:15:33.361Z,7.86
2018-11-27T09:18:18.527Z,8.38
2018-11-27T09:20:45.904Z,8.47
2018-11-27T09:23:13.273Z,8.21
2018-11-27T09:25:40.635Z,8.52
2018-11-27T09:28:07.939Z,8.68
2018-11-27T09:30:35.347Z,8.96
2018-11-27T09:33:02.768Z,9.02
2018-11-27T09:35:30.249Z,9.11
2018-11-27T09:37:57.823Z,8.86
2018-11-27T09:40:25.225Z,8.71
2018-11-27T09:42:52.681Z,8.66
2018-11-27T09:45:24.155Z,8.49
2018-11-27T09:47:53.986Z,8.59
2018-11-27T09:50:21.321Z,8.58
2018-11-27T09:52:48.882Z,8.59
2018-11-27T09:55:17.724Z,9.00
2018-11-27T09:57:45.146Z,9.02
2018-11-27T10:00:24.922Z,9.09
2018-11-27T10:02:53.685Z,9.23
2018-11-27T10:05:21.966Z,9.11
2018-11-27T10:07:49.364Z,9.41
2018-11-27T10:10:18.162Z,9.26
2018-11-27T10:12:45.529Z,8.94
2018-11-27T10:15:15.998Z,9.25
2018-11-27T10:17:44.069Z,9.45
2018-11-27T10:20:13.197Z,9.35
2018-11-27T10:22:41.306Z,9.43
2018-11-27T10:25:09.939Z,9.63
2018-11-27T10:27:37.325Z,9.55
2018-11-27T10:30:09.276Z,9.62
2018-11-27T10:32:36.787Z,9.65
2018-11-27T10:35:04.677Z,9.59
2018-11-27T10:37:32.062Z,9.63
2018-11-27T10:40:00.004Z,9.61
2018-11-27T10:42:30.078Z,9.81
2018-11-27T10:44:54.793Z,9.59
2018-11-27T10:47:22.240Z,8.73
2018-11-27T10:49:50.205Z,9.35
2018-11-27T10:52:17.564Z,9.58
2018-11-27T10:54:44.920Z,9.73
2018-11-27T10:57:12.377Z,9.52
2018-11-27T10:59:39.942Z,9.57
2018-11-27T11:02:12.969Z,9.66
2018-11-27T11:04:40.396Z,9.70
2018-11-27T11:07:07.779Z,9.91
2018-11-27T11:09:35.196Z,9.83
2018-11-27T11:12:02.524Z,9.66
2018-11-27T11:14:29.887Z,9.11
2018-11-27T11:16:57.223Z,9.61
2018-11-27T11:19:24.664Z,9.91
2018-11-27T11:21:51.999Z,10.09
2018-11-27T11:24:19.424Z,10.25
2018-11-27T11:26:46.770Z,9.95
2018-11-27T11:29:14.180Z,10.13
2018-11-27T11:31:41.608Z,10.00
2018-11-27T11:34:08.966Z,10.12
2018-11-27T11:36:36.282Z,10.15
2018-11-27T11:39:07.339Z,10.26
2018-11-27T11:41:34.729Z,10.40
2018-11-27T11:44:02.198Z,10.08
2018-11-27T11:46:29.554Z,10.20
2018-11-27T11:49:01.783Z,10.30
2018-11-27T11:51:24.432Z,10.32
2018-11-27T11:53:51.961Z,10.47
2018-11-27T11:56:19.365Z,9.98
2018-11-27T11:58:46.743Z,10.20
2018-11-27T12:01:14.116Z,10.34
2018-11-27T12:03:42.521Z,10.02
2018-11-27T12:06:10.607Z,10.33
2018-11-27T12:08:38.751Z,10.14
2018-11-27T12:11:06.097Z,10.39
2018-11-27T12:13:33.527Z,10.27
2018-11-27T12:16:01.411Z,10.32
2018-11-27T12:18:28.789Z,10.34
2018-11-27T12:20:57.280Z,10.42
2018-11-27T12:23:24.628Z,10.19
2018-11-27T12:25:51.998Z,10.25
2018-11-27T12:28:19.406Z,10.13
2018-11-27T12:30:46.848Z,10.20
2018-11-27T12:33:14.241Z,10.10
2018-11-27T12:35:41.629Z,9.96
2018-11-27T12:38:09.219Z,10.30
2018-11-27T12:40:36.690Z,10.50
2018-11-27T12:43:04.407Z,10.47
2018-11-27T12:45:32.779Z,10.23
2018-11-27T12:48:01.620Z,10.28
2018-11-27T12:50:39.700Z,10.06
2018-11-27T12:53:09.346Z,10.34
2018-11-27T12:55:38.259Z,10.55
2018-11-27T12:58:06.961Z,10.32
2018-11-27T13:00:34.832Z,10.33
2018-11-27T13:03:02.268Z,10.23
2018-11-27T13:05:42.000Z,10.02
2018-11-27T13:08:12.031Z,10.06
2018-11-27T13:10:39.364Z,10.23
2018-11-27T13:13:06.818Z,10.43
2018-11-27T13:15:35.545Z,10.30
2018-11-27T13:18:03.085Z,10.35
2018-11-27T13:20:30.459Z,10.32
2018-11-27T13:22:57.835Z,10.24
2018-11-27T13:25:25.234Z,10.16
2018-11-27T13:27:54.120Z,10.26
2018-11-27T13:30:28.225Z,10.06
2018-11-27T13:32:58.237Z,10.06
2018-11-27T13:35:25.638Z,10.18
2018-11-27T13:37:53.067Z,10.13
2018-11-27T13:40:20.453Z,10.18
2018-11-27T13:42:47.908Z,10.29
2018-11-27T13:45:15.773Z,10.21
2018-11-27T13:47:43.695Z,10.20
2018-11-27T13:50:13.049Z,10.08
2018-11-27T13:52:40.398Z,9.96
2018-11-27T13:55:10.940Z,9.85
2018-11-27T13:57:38.287Z,9.80
2018-11-27T14:00:08.250Z,9.83
2018-11-27T14:02:35.589Z,9.60
2018-11-27T14:05:02.955Z,9.95
2018-11-27T14:07:30.377Z,9.36
2018-11-27T14:09:57.761Z,9.62
2018-11-27T14:12:25.185Z,9.74
2018-11-27T14:14:52.563Z,9.69
2018-11-27T14:17:20.066Z,9.80
2018-11-27T14:19:47.461Z,9.26
2018-11-27T14:22:15.032Z,9.61
2018-11-27T14:24:42.441Z,9.67
2018-11-27T14:27:09.872Z,9.65
2018-11-27T14:29:37.230Z,9.72
2018-11-27T14:32:10.859Z,9.80
2018-11-27T14:34:38.294Z,9.90
2018-11-27T14:37:05.757Z,9.82
2018-11-27T14:39:33.290Z,9.55
2018-11-27T14:42:00.646Z,8.79
2018-11-27T14:44:28.204Z,8.80
2018-11-27T14:46:55.680Z,9.23
2018-11-27T14:49:23.077Z,8.93
2018-11-27T14:51:50.607Z,9.20
2018-11-27T14:54:17.956Z,9.35
2018-11-27T14:56:45.506Z,9.07
2018-11-27T14:59:12.893Z,8.79
2018-11-27T15:01:40.245Z,8.99
2018-11-27T15:04:07.744Z,9.03
2018-11-27T15:06:35.199Z,9.07
2018-11-27T15:09:03.635Z,8.99
2018-11-27T15:11:30.914Z,9.03
2018-11-27T15:13:58.489Z,8.88
2018-11-27T15:16:25.935Z,8.79
2018-11-27T15:18:53.397Z,8.87
2018-11-27T15:21:20.733Z,8.79
2018-11-27T15:23:48.083Z,8.71
2018-11-27T15:26:15.462Z,8.73
2018-11-27T15:28:43.022Z,8.63
2018-11-27T15:31:10.456Z,8.58
2018-11-27T15:33:37.904Z,8.61
2018-11-27T15:36:05.736Z,8.67
2018-11-27T15:38:33.167Z,8.31
2018-11-27T15:41:00.534Z,8.38
2018-11-27T15:43:27.920Z,8.29
2018-11-27T15:45:55.410Z,8.27
2018-11-27T15:48:22.905Z,8.31
2018-11-27T15:50:50.266Z,8.29
2018-11-27T15:53:17.660Z,8.16
2018-11-27T15:55:45.050Z,8.24
2018-11-27T15:58:13.582Z,8.29
2018-11-27T16:00:42.130Z,8.17
2018-11-27T16:03:09.486Z,8.22
2018-11-27T16:05:37.596Z,8.18
2018-11-27T16:08:06.337Z,8.04
2018-11-27T16:10:33.808Z,8.00
2018-11-27T16:13:01.253Z,7.97
2018-11-27T16:15:28.703Z,7.93
2018-11-27T16:17:56.027Z,7.96
2018-11-27T16:20:23.427Z,7.95
2018-11-27T16:22:51.825Z,7.94
2018-11-27T16:25:20.544Z,7.98
2018-11-27T16:27:47.976Z,7.90
2018-11-27T16:30:18.791Z,7.98
2018-11-27T16:32:46.227Z,7.94
2018-11-27T16:35:14.092Z,7.97
2018-11-27T16:37:42.366Z,7.94
2018-11-27T16:40:13.142Z,8.01
2018-11-27T16:42:43.132Z,8.00
2018-11-27T16:45:16.844Z,8.01
2018-11-27T16:47:44.640Z,8.02
2018-11-27T16:50:13.921Z,7.81
2018-11-27T16:52:41.344Z,7.90
2018-11-27T16:55:12.839Z,7.93
2018-11-27T16:57:40.531Z,7.79
2018-11-27T17:00:20.374Z,7.84
2018-11-27T17:02:48.736Z,7.50
2018-11-27T17:05:16.198Z,7.77
2018-11-27T17:07:43.537Z,7.75
2018-11-27T17:10:13.219Z,7.35
2018-11-27T17:12:40.833Z,7.50
2018-11-27T17:15:12.719Z,7.72
2018-11-27T17:17:40.061Z,7.59
2018-11-27T17:20:12.151Z,7.67
2018-11-27T17:22:39.575Z,7.58
2018-11-27T17:25:06.971Z,7.70
2018-11-27T17:27:34.407Z,7.65
2018-11-27T17:30:01.784Z,7.51
2018-11-27T17:32:29.155Z,7.62
2018-11-27T17:34:56.590Z,7.61
2018-11-27T17:37:23.968Z,7.23
2018-11-27T17:39:51.354Z,7.53
2018-11-27T17:42:18.726Z,7.52
2018-11-27T17:44:46.197Z,7.44
2018-11-27T17:47:13.672Z,7.50
2018-11-27T17:49:41.306Z,7.34
2018-11-27T17:52:08.658Z,7.42
2018-11-27T17:54:36.171Z,7.40
2018-11-27T17:57:03.510Z,7.47
2018-11-27T17:59:30.882Z,7.18
2018-11-27T18:01:58.476Z,7.18
2018-11-27T18:04:25.810Z,7.46
2018-11-27T18:06:53.308Z,7.46
2018-11-27T18:09:20.830Z,7.59
2018-11-27T18:11:48.356Z,7.57
2018-11-27T18:14:15.719Z,7.55
2018-11-27T18:16:43.726Z,7.44
2018-11-27T18:19:11.117Z,7.37
2018-11-27T18:21:38.584Z,7.26
2018-11-27T18:24:06.035Z,7.32
2018-11-27T18:26:33.446Z,7.34
2018-11-27T18:29:01.267Z,6.65
2018-11-27T18:31:28.745Z,6.98
2018-11-27T18:33:56.258Z,6.86
2018-11-27T18:36:25.806Z,6.87
2018-11-27T18:38:51.089Z,6.63
2018-11-27T18:41:18.579Z,6.96
2018-11-27T18:43:46.132Z,6.58
2018-11-27T18:46:13.602Z,5.88
2018-11-27T18:48:41.029Z,6.59
2018-11-27T18:51:08.464Z,6.68
2018-11-27T18:53:35.979Z,6.59
2018-11-27T18:56:03.509Z,6.79
2018-11-27T18:58:30.881Z,6.28
2018-11-27T19:00:58.218Z,6.83
2018-11-27T19:03:25.599Z,6.77
2018-11-27T19:05:53.079Z,6.90
2018-11-27T19:08:20.640Z,6.59
2018-11-27T19:10:48.091Z,6.84
2018-11-27T19:13:15.463Z,7.00
2018-11-27T19:15:45.344Z,6.90
2018-11-27T19:18:15.662Z,7.06
2018-11-27T19:20:43.059Z,7.09
2018-11-27T19:23:10.448Z,7.07
2018-11-27T19:25:37.954Z,7.09
2018-11-27T19:28:06.296Z,7.04
2018-11-27T19:30:33.937Z,6.96
2018-11-27T19:33:01.283Z,6.87
2018-11-27T19:35:28.680Z,6.80
2018-11-27T19:37:56.121Z,6.80
2018-11-27T19:40:23.476Z,6.75
2018-11-27T19:42:50.865Z,6.66
2018-11-27T19:45:22.707Z,6.66
2018-11-27T19:47:50.350Z,6.69
2018-11-27T19:50:19.619Z,6.73
2018-11-27T19:52:49.331Z,6.73
2018-11-27T19:55:17.496Z,6.57
2018-11-27T19:57:44.983Z,6.48
2018-11-27T20:00:15.680Z,6.41
2018-11-27T20:02:43.483Z,6.39
2018-11-27T20:05:12.348Z,6.40
2018-11-27T20:07:40.262Z,6.42
2018-11-27T20:10:09.781Z,6.48
2018-11-27T20:12:37.389Z,6.46
2018-11-27T20:15:07.466Z,6.44
2018-11-27T20:17:34.881Z,6.39
2018-11-27T20:20:02.331Z,6.39
2018-11-27T20:22:29.743Z,6.37
2018-11-27T20:24:57.225Z,6.22
2018-11-27T20:27:25.602Z,6.17
2018-11-27T20:29:53.246Z,6.13
2018-11-27T20:32:20.776Z,6.21
2018-11-27T20:34:48.160Z,6.19
2018-11-27T20:37:15.685Z,6.25
2018-11-27T20:39:43.141Z,6.08
2018-11-27T20:42:10.567Z,6.03
2018-11-27T20:44:37.931Z,6.05
2018-11-27T20:47:07.586Z,6.08
2018-11-27T20:49:32.863Z,6.14
2018-11-27T20:52:00.407Z,6.06
2018-11-27T20:54:28.036Z,6.09
2018-11-27T20:56:55.539Z,5.96
2018-11-27T20:59:23.065Z,6.11
2018-11-27T21:01:50.655Z,6.10
2018-11-27T21:04:18.093Z,6.10
2018-11-27T21:06:45.551Z,6.00
2018-11-27T21:09:13.151Z,5.97
2018-11-27T21:11:41.088Z,5.89
2018-11-27T21:14:09.217Z,6.02
2018-11-27T21:16:36.737Z,5.97
2018-11-27T21:19:04.320Z,6.01
2018-11-27T21:21:31.718Z,6.05
2018-11-27T21:23:59.188Z,6.02
2018-11-27T21:26:26.604Z,6.03
2018-11-27T21:28:54.035Z,5.95
2018-11-27T21:31:24.141Z,5.86
2018-11-27T21:33:48.887Z,5.94
2018-11-27T21:36:16.414Z,5.97
2018-11-27T21:38:43.866Z,5.98
2018-11-27T21:41:11.243Z,5.97
2018-11-27T21:43:38.696Z,5.95
2018-11-27T21:46:07.209Z,5.11
2018-11-27T21:48:35.301Z,5.29
2018-11-27T21:51:03.511Z,5.66
2018-11-27T21:53:30.890Z,5.26
2018-11-27T21:55:58.535Z,5.42
2018-11-27T21:58:26.001Z,5.68
2018-11-27T22:00:53.376Z,5.96
2018-11-27T22:03:20.856Z,5.59
2018-11-27T22:05:48.264Z,5.83
2018-11-27T22:08:16.156Z,5.89
2018-11-27T22:10:43.470Z,5.94
2018-11-27T22:13:12.656Z,6.01
2018-11-27T22:15:41.317Z,5.93
2018-11-27T22:18:09.877Z,5.90
2018-11-27T22:20:37.320Z,5.87
2018-11-27T22:23:05.534Z,5.86
2018-11-27T22:25:32.939Z,5.79
2018-11-27T22:28:00.358Z,5.80
2018-11-27T22:30:27.744Z,5.75
2018-11-27T22:32:55.586Z,5.51
2018-11-27T22:35:22.998Z,5.45
2018-11-27T22:37:50.425Z,5.66
2018-11-27T22:40:19.440Z,5.61
2018-11-27T22:42:47.415Z,5.77
2018-11-27T22:45:31.538Z,5.74
2018-11-27T22:47:58.977Z,5.76
2018-11-27T22:50:26.457Z,5.76
2018-11-27T22:52:53.871Z,5.59
2018-11-27T22:55:21.488Z,5.75
2018-11-27T22:57:48.919Z,5.76
2018-11-27T23:00:21.693Z,5.75
2018-11-27T23:02:49.244Z,5.19
2018-11-27T23:05:17.443Z,5.53
2018-11-27T23:07:44.882Z,5.46
2018-11-27T23:10:13.087Z,5.49
2018-11-27T23:12:40.525Z,5.51
2018-11-27T23:15:10.533Z,5.43
2018-11-27T23:17:37.952Z,5.44
2018-11-27T23:20:07.932Z,5.36
2018-11-27T23:22:35.272Z,5.24
2018-11-27T23:25:02.778Z,5.24
2018-11-27T23:27:30.320Z,5.25
2018-11-27T23:29:57.664Z,5.15
2018-11-27T23:32:25.122Z,5.08
2018-11-27T23:34:53.119Z,4.96
2018-11-27T23:37:20.544Z,5.09
2018-11-27T23:39:47.998Z,5.03
2018-11-27T23:42:15.532Z,5.10
2018-11-27T23:44:43.386Z,5.13
2018-11-27T23:47:10.790Z,5.09
2018-11-27T23:49:38.632Z,5.07
2018-11-27T23:52:06.034Z,5.14
2018-11-27T23:54:33.363Z,5.04
2018-11-27T23:57:00.810Z,5.00
2018-11-27T23:59:28.215Z,4.95
